sensor_id;sensor_type;location;lat;lon;timestamp;temperature;humidity
57434;DHT22;43277;52.672;6.984;2022-08-19T00:00:36;16.50;99.90
57434;DHT22;43277;52.672;6.984;2022-08-19T00:03:02;16.60;99.90
57434;DHT22;43277;52.672;6.984;2022-08-19T00:05:28;16.50;99.90
57434;DHT22;43277;52.672;6.984;2022-08-19T00:07:53;16.50;99.90
57434;DHT22;43277;52.672;6.984;2022-08-19T00:10:20;16.50;99.90
57434;DHT22;43277;52.672;6.984;2022-08-19T00:12:46;16.50;99.90
57434;DHT22;43277;52.672;6.984;2022-08-19T00:15:15;16.50;99.90
57434;DHT22;43277;52.672;6.984;2022-08-19T00:17:43;16.40;99.90
57434;DHT22;43277;52.672;6.984;2022-08-19T00:20:19;16.40;99.90
57434;DHT22;43277;52.672;6.984;2022-08-19T00:22:46;16.40;99.90
57434;DHT22;43277;52.672;6.984;2022-08-19T00:25:13;16.40;99.90
57434;DHT22;43277;52.672;6.984;2022-08-19T00:27:40;16.30;99.90
57434;DHT22;43277;52.672;6.984;2022-08-19T00:30:07;16.30;99.90
57434;DHT22;43277;52.672;6.984;2022-08-19T00:32:32;16.30;99.90
57434;DHT22;43277;52.672;6.984;2022-08-19T00:35:00;16.30;99.90
57434;DHT22;43277;52.672;6.984;2022-08-19T00:37:26;16.30;99.90
57434;DHT22;43277;52.672;6.984;2022-08-19T00:39:53;16.30;99.90
57434;DHT22;43277;52.672;6.984;2022-08-19T00:42:20;16.30;99.90
57434;DHT22;43277;52.672;6.984;2022-08-19T00:44:46;16.30;99.90
57434;DHT22;43277;52.672;6.984;2022-08-19T00:47:13;16.20;99.90
57434;DHT22;43277;52.672;6.984;2022-08-19T00:49:44;16.20;99.90
57434;DHT22;43277;52.672;6.984;2022-08-19T00:52:19;16.20;99.90
57434;DHT22;43277;52.672;6.984;2022-08-19T00:54:47;16.20;99.90
57434;DHT22;43277;52.672;6.984;2022-08-19T00:57:17;16.20;99.90
57434;DHT22;43277;52.672;6.984;2022-08-19T00:59:47;16.10;99.90
57434;DHT22;43277;52.672;6.984;2022-08-19T01:02:14;16.10;99.90
57434;DHT22;43277;52.672;6.984;2022-08-19T01:04:40;16.00;99.90
57434;DHT22;43277;52.672;6.984;2022-08-19T01:07:06;16.00;99.90
57434;DHT22;43277;52.672;6.984;2022-08-19T01:09:32;15.90;99.90
57434;DHT22;43277;52.672;6.984;2022-08-19T01:11:59;16.00;99.90
57434;DHT22;43277;52.672;6.984;2022-08-19T01:14:25;15.90;99.90
57434;DHT22;43277;52.672;6.984;2022-08-19T01:16:52;15.90;99.90
57434;DHT22;43277;52.672;6.984;2022-08-19T01:19:29;15.90;99.90
57434;DHT22;43277;52.672;6.984;2022-08-19T01:22:06;15.90;99.90
57434;DHT22;43277;52.672;6.984;2022-08-19T01:24:33;15.90;99.90
57434;DHT22;43277;52.672;6.984;2022-08-19T01:26:59;15.90;99.90
57434;DHT22;43277;52.672;6.984;2022-08-19T01:29:25;15.80;99.90
57434;DHT22;43277;52.672;6.984;2022-08-19T01:31:50;15.80;99.90
57434;DHT22;43277;52.672;6.984;2022-08-19T01:34:18;15.70;99.90
57434;DHT22;43277;52.672;6.984;2022-08-19T01:36:46;15.60;99.90
57434;DHT22;43277;52.672;6.984;2022-08-19T01:39:23;15.70;99.90
57434;DHT22;43277;52.672;6.984;2022-08-19T01:41:50;15.60;99.90
57434;DHT22;43277;52.672;6.984;2022-08-19T01:44:17;15.60;99.90
57434;DHT22;43277;52.672;6.984;2022-08-19T01:46:47;15.50;99.90
57434;DHT22;43277;52.672;6.984;2022-08-19T01:49:14;15.50;99.90
57434;DHT22;43277;52.672;6.984;2022-08-19T01:51:40;15.40;99.90
57434;DHT22;43277;52.672;6.984;2022-08-19T01:54:07;15.40;99.90
57434;DHT22;43277;52.672;6.984;2022-08-19T01:56:32;15.30;99.90
57434;DHT22;43277;52.672;6.984;2022-08-19T01:59:02;15.30;99.90
57434;DHT22;43277;52.672;6.984;2022-08-19T02:01:29;15.30;99.90
57434;DHT22;43277;52.672;6.984;2022-08-19T02:03:58;15.30;99.90
57434;DHT22;43277;52.672;6.984;2022-08-19T02:06:24;15.30;99.90
57434;DHT22;43277;52.672;6.984;2022-08-19T02:08:49;15.30;99.90
57434;DHT22;43277;52.672;6.984;2022-08-19T02:11:32;15.30;99.90
57434;DHT22;43277;52.672;6.984;2022-08-19T02:14:00;15.40;99.90
57434;DHT22;43277;52.672;6.984;2022-08-19T02:16:28;15.30;99.90
57434;DHT22;43277;52.672;6.984;2022-08-19T02:18:53;15.40;99.90
57434;DHT22;43277;52.672;6.984;2022-08-19T02:21:21;15.40;99.90
57434;DHT22;43277;52.672;6.984;2022-08-19T02:23:47;15.40;99.90
57434;DHT22;43277;52.672;6.984;2022-08-19T02:26:13;15.40;99.90
57434;DHT22;43277;52.672;6.984;2022-08-19T02:28:40;15.40;99.90
57434;DHT22;43277;52.672;6.984;2022-08-19T02:31:10;15.40;99.90
57434;DHT22;43277;52.672;6.984;2022-08-19T02:33:36;15.30;99.90
57434;DHT22;43277;52.672;6.984;2022-08-19T02:36:06;15.40;99.90
57434;DHT22;43277;52.672;6.984;2022-08-19T02:38:32;15.40;99.90
57434;DHT22;43277;52.672;6.984;2022-08-19T02:41:05;15.30;99.90
57434;DHT22;43277;52.672;6.984;2022-08-19T02:43:32;15.30;99.90
57434;DHT22;43277;52.672;6.984;2022-08-19T02:45:57;15.30;99.90
57434;DHT22;43277;52.672;6.984;2022-08-19T02:48:24;15.30;99.90
57434;DHT22;43277;52.672;6.984;2022-08-19T02:50:51;15.20;99.90
57434;DHT22;43277;52.672;6.984;2022-08-19T02:53:20;15.20;99.90
57434;DHT22;43277;52.672;6.984;2022-08-19T02:55:48;15.20;99.90
57434;DHT22;43277;52.672;6.984;2022-08-19T02:58:14;15.20;99.90
57434;DHT22;43277;52.672;6.984;2022-08-19T03:00:45;15.20;99.90
57434;DHT22;43277;52.672;6.984;2022-08-19T03:03:12;15.10;99.90
57434;DHT22;43277;52.672;6.984;2022-08-19T03:05:38;15.00;99.90
57434;DHT22;43277;52.672;6.984;2022-08-19T03:08:03;15.00;99.90
57434;DHT22;43277;52.672;6.984;2022-08-19T03:10:29;14.90;99.90
57434;DHT22;43277;52.672;6.984;2022-08-19T03:12:55;14.80;99.90
57434;DHT22;43277;52.672;6.984;2022-08-19T03:15:20;14.70;99.90
57434;DHT22;43277;52.672;6.984;2022-08-19T03:17:46;14.70;99.90
57434;DHT22;43277;52.672;6.984;2022-08-19T03:20:11;14.60;99.90
57434;DHT22;43277;52.672;6.984;2022-08-19T03:22:37;14.60;99.90
57434;DHT22;43277;52.672;6.984;2022-08-19T03:25:03;14.50;99.90
57434;DHT22;43277;52.672;6.984;2022-08-19T03:27:29;14.40;99.90
57434;DHT22;43277;52.672;6.984;2022-08-19T03:29:55;14.30;99.90
57434;DHT22;43277;52.672;6.984;2022-08-19T03:32:20;14.20;99.90
57434;DHT22;43277;52.672;6.984;2022-08-19T03:34:47;14.10;99.90
57434;DHT22;43277;52.672;6.984;2022-08-19T03:37:12;14.10;99.90
57434;DHT22;43277;52.672;6.984;2022-08-19T03:39:39;14.10;99.90
57434;DHT22;43277;52.672;6.984;2022-08-19T03:42:06;14.10;99.90
57434;DHT22;43277;52.672;6.984;2022-08-19T03:44:32;14.00;99.90
57434;DHT22;43277;52.672;6.984;2022-08-19T03:46:59;14.00;99.90
57434;DHT22;43277;52.672;6.984;2022-08-19T03:49:29;13.90;99.90
57434;DHT22;43277;52.672;6.984;2022-08-19T03:51:57;13.90;99.90
57434;DHT22;43277;52.672;6.984;2022-08-19T03:54:24;13.90;99.90
57434;DHT22;43277;52.672;6.984;2022-08-19T03:56:52;13.90;99.90
57434;DHT22;43277;52.672;6.984;2022-08-19T03:59:25;13.90;99.90
57434;DHT22;43277;52.672;6.984;2022-08-19T04:01:53;13.90;99.90
57434;DHT22;43277;52.672;6.984;2022-08-19T04:04:19;13.80;99.90
57434;DHT22;43277;52.672;6.984;2022-08-19T04:06:44;13.70;99.90
57434;DHT22;43277;52.672;6.984;2022-08-19T04:09:12;13.70;99.90
57434;DHT22;43277;52.672;6.984;2022-08-19T04:11:45;13.70;99.90
57434;DHT22;43277;52.672;6.984;2022-08-19T04:14:13;13.70;99.90
57434;DHT22;43277;52.672;6.984;2022-08-19T04:16:39;13.70;99.90
57434;DHT22;43277;52.672;6.984;2022-08-19T04:19:05;13.70;99.90
57434;DHT22;43277;52.672;6.984;2022-08-19T04:21:32;13.70;99.90
57434;DHT22;43277;52.672;6.984;2022-08-19T04:23:58;13.70;99.90
57434;DHT22;43277;52.672;6.984;2022-08-19T04:26:29;13.70;99.90
57434;DHT22;43277;52.672;6.984;2022-08-19T04:29:03;13.80;99.90
57434;DHT22;43277;52.672;6.984;2022-08-19T04:31:31;13.80;99.90
57434;DHT22;43277;52.672;6.984;2022-08-19T04:34:03;13.90;99.90
57434;DHT22;43277;52.672;6.984;2022-08-19T04:36:32;13.90;99.90
57434;DHT22;43277;52.672;6.984;2022-08-19T04:39:02;14.00;99.90
57434;DHT22;43277;52.672;6.984;2022-08-19T04:41:28;14.00;99.90
57434;DHT22;43277;52.672;6.984;2022-08-19T04:44:13;14.10;99.90
57434;DHT22;43277;52.672;6.984;2022-08-19T04:46:39;14.20;99.90
57434;DHT22;43277;52.672;6.984;2022-08-19T04:49:06;14.20;99.90
57434;DHT22;43277;52.672;6.984;2022-08-19T04:51:33;14.20;99.90
57434;DHT22;43277;52.672;6.984;2022-08-19T04:53:59;14.20;99.90
57434;DHT22;43277;52.672;6.984;2022-08-19T04:56:25;14.30;99.90
57434;DHT22;43277;52.672;6.984;2022-08-19T04:58:52;14.30;99.90
57434;DHT22;43277;52.672;6.984;2022-08-19T05:01:21;14.20;99.90
57434;DHT22;43277;52.672;6.984;2022-08-19T05:03:48;14.20;99.90
57434;DHT22;43277;52.672;6.984;2022-08-19T05:06:15;14.20;99.90
57434;DHT22;43277;52.672;6.984;2022-08-19T05:08:43;14.20;99.90
57434;DHT22;43277;52.672;6.984;2022-08-19T05:11:10;14.20;99.90
57434;DHT22;43277;52.672;6.984;2022-08-19T05:13:36;14.10;99.90
57434;DHT22;43277;52.672;6.984;2022-08-19T05:16:02;14.00;99.90
57434;DHT22;43277;52.672;6.984;2022-08-19T05:18:28;13.90;99.90
57434;DHT22;43277;52.672;6.984;2022-08-19T05:21:14;13.90;99.90
57434;DHT22;43277;52.672;6.984;2022-08-19T05:23:59;13.90;99.90
57434;DHT22;43277;52.672;6.984;2022-08-19T05:26:25;13.90;99.90
57434;DHT22;43277;52.672;6.984;2022-08-19T05:28:52;13.90;99.90
57434;DHT22;43277;52.672;6.984;2022-08-19T05:31:18;13.90;99.90
57434;DHT22;43277;52.672;6.984;2022-08-19T05:33:44;13.90;99.90
57434;DHT22;43277;52.672;6.984;2022-08-19T05:36:10;14.00;99.90
57434;DHT22;43277;52.672;6.984;2022-08-19T05:38:35;14.00;99.90
57434;DHT22;43277;52.672;6.984;2022-08-19T05:41:09;14.10;99.90
57434;DHT22;43277;52.672;6.984;2022-08-19T05:43:36;14.00;99.90
57434;DHT22;43277;52.672;6.984;2022-08-19T05:46:03;14.00;99.90
57434;DHT22;43277;52.672;6.984;2022-08-19T05:48:34;14.00;99.90
57434;DHT22;43277;52.672;6.984;2022-08-19T05:51:07;14.00;99.90
57434;DHT22;43277;52.672;6.984;2022-08-19T05:53:34;14.00;99.90
57434;DHT22;43277;52.672;6.984;2022-08-19T05:56:11;14.10;99.90
57434;DHT22;43277;52.672;6.984;2022-08-19T05:58:39;14.10;99.90
57434;DHT22;43277;52.672;6.984;2022-08-19T06:01:10;14.10;99.90
57434;DHT22;43277;52.672;6.984;2022-08-19T06:03:36;14.20;99.90
57434;DHT22;43277;52.672;6.984;2022-08-19T06:06:03;14.20;99.90
57434;DHT22;43277;52.672;6.984;2022-08-19T06:08:30;14.30;99.90
57434;DHT22;43277;52.672;6.984;2022-08-19T06:10:55;14.30;99.90
57434;DHT22;43277;52.672;6.984;2022-08-19T06:13:22;14.50;99.90
57434;DHT22;43277;52.672;6.984;2022-08-19T06:15:48;14.50;99.90
57434;DHT22;43277;52.672;6.984;2022-08-19T06:18:15;14.60;99.90
57434;DHT22;43277;52.672;6.984;2022-08-19T06:20:41;14.70;99.90
57434;DHT22;43277;52.672;6.984;2022-08-19T06:23:08;14.90;99.90
57434;DHT22;43277;52.672;6.984;2022-08-19T06:25:34;15.00;99.90
57434;DHT22;43277;52.672;6.984;2022-08-19T06:28:00;15.10;99.90
57434;DHT22;43277;52.672;6.984;2022-08-19T06:30:26;15.20;99.90
57434;DHT22;43277;52.672;6.984;2022-08-19T06:32:52;15.50;99.90
57434;DHT22;43277;52.672;6.984;2022-08-19T06:35:18;15.60;99.90
57434;DHT22;43277;52.672;6.984;2022-08-19T06:37:43;15.70;99.90
57434;DHT22;43277;52.672;6.984;2022-08-19T06:40:10;15.90;99.90
57434;DHT22;43277;52.672;6.984;2022-08-19T06:42:37;16.00;99.90
57434;DHT22;43277;52.672;6.984;2022-08-19T06:45:04;16.20;99.90
57434;DHT22;43277;52.672;6.984;2022-08-19T06:47:30;16.40;99.90
57434;DHT22;43277;52.672;6.984;2022-08-19T06:49:58;16.60;99.90
57434;DHT22;43277;52.672;6.984;2022-08-19T06:52:32;16.80;99.90
57434;DHT22;43277;52.672;6.984;2022-08-19T06:54:59;17.00;99.90
57434;DHT22;43277;52.672;6.984;2022-08-19T06:57:25;17.20;99.90
57434;DHT22;43277;52.672;6.984;2022-08-19T06:59:51;17.50;99.90
57434;DHT22;43277;52.672;6.984;2022-08-19T07:02:17;17.80;99.90
57434;DHT22;43277;52.672;6.984;2022-08-19T07:04:43;17.90;99.90
57434;DHT22;43277;52.672;6.984;2022-08-19T07:07:11;18.10;99.90
57434;DHT22;43277;52.672;6.984;2022-08-19T07:09:40;18.30;99.90
57434;DHT22;43277;52.672;6.984;2022-08-19T07:12:08;18.50;99.90
57434;DHT22;43277;52.672;6.984;2022-08-19T07:14:35;18.70;99.90
57434;DHT22;43277;52.672;6.984;2022-08-19T07:17:04;18.90;99.90
57434;DHT22;43277;52.672;6.984;2022-08-19T07:19:30;19.10;99.90
57434;DHT22;43277;52.672;6.984;2022-08-19T07:21:57;19.20;99.90
57434;DHT22;43277;52.672;6.984;2022-08-19T07:24:27;19.30;99.90
57434;DHT22;43277;52.672;6.984;2022-08-19T07:26:56;19.50;99.90
57434;DHT22;43277;52.672;6.984;2022-08-19T07:29:26;19.60;99.90
57434;DHT22;43277;52.672;6.984;2022-08-19T07:31:53;19.60;99.90
57434;DHT22;43277;52.672;6.984;2022-08-19T07:34:23;19.80;99.90
57434;DHT22;43277;52.672;6.984;2022-08-19T07:36:49;19.90;99.90
57434;DHT22;43277;52.672;6.984;2022-08-19T07:39:22;20.00;99.90
57434;DHT22;43277;52.672;6.984;2022-08-19T07:41:47;20.30;99.90
57434;DHT22;43277;52.672;6.984;2022-08-19T07:44:14;20.40;99.90
57434;DHT22;43277;52.672;6.984;2022-08-19T07:46:43;20.40;99.90
57434;DHT22;43277;52.672;6.984;2022-08-19T07:49:10;20.60;99.90
57434;DHT22;43277;52.672;6.984;2022-08-19T07:52:00;20.60;99.90
57434;DHT22;43277;52.672;6.984;2022-08-19T07:54:28;20.90;99.90
57434;DHT22;43277;52.672;6.984;2022-08-19T07:56:55;21.10;99.90
57434;DHT22;43277;52.672;6.984;2022-08-19T07:59:22;21.20;99.90
57434;DHT22;43277;52.672;6.984;2022-08-19T08:01:48;21.30;99.90
57434;DHT22;43277;52.672;6.984;2022-08-19T08:04:16;21.30;99.90
57434;DHT22;43277;52.672;6.984;2022-08-19T08:07:00;21.40;99.90
57434;DHT22;43277;52.672;6.984;2022-08-19T08:09:45;21.50;99.90
57434;DHT22;43277;52.672;6.984;2022-08-19T08:12:15;21.60;99.90
57434;DHT22;43277;52.672;6.984;2022-08-19T08:17:10;21.80;99.90
57434;DHT22;43277;52.672;6.984;2022-08-19T08:19:36;21.90;99.90
57434;DHT22;43277;52.672;6.984;2022-08-19T08:22:03;22.00;99.90
57434;DHT22;43277;52.672;6.984;2022-08-19T08:24:31;22.10;99.90
57434;DHT22;43277;52.672;6.984;2022-08-19T08:26:58;22.10;99.90
57434;DHT22;43277;52.672;6.984;2022-08-19T08:29:26;22.20;99.90
57434;DHT22;43277;52.672;6.984;2022-08-19T08:31:52;22.30;99.90
57434;DHT22;43277;52.672;6.984;2022-08-19T08:34:19;22.30;99.90
57434;DHT22;43277;52.672;6.984;2022-08-19T08:36:45;22.40;99.90
57434;DHT22;43277;52.672;6.984;2022-08-19T08:39:14;22.50;99.90
57434;DHT22;43277;52.672;6.984;2022-08-19T08:44:47;22.70;99.90
57434;DHT22;43277;52.672;6.984;2022-08-19T08:47:17;22.80;99.90
57434;DHT22;43277;52.672;6.984;2022-08-19T08:49:57;22.90;99.90
57434;DHT22;43277;52.672;6.984;2022-08-19T08:52:29;23.10;99.90
57434;DHT22;43277;52.672;6.984;2022-08-19T08:54:57;23.20;99.90
57434;DHT22;43277;52.672;6.984;2022-08-19T08:57:35;23.30;99.90
57434;DHT22;43277;52.672;6.984;2022-08-19T09:00:06;23.50;99.90
57434;DHT22;43277;52.672;6.984;2022-08-19T09:02:33;23.50;99.90
57434;DHT22;43277;52.672;6.984;2022-08-19T09:04:58;23.60;99.90
57434;DHT22;43277;52.672;6.984;2022-08-19T09:10:03;23.80;99.90
57434;DHT22;43277;52.672;6.984;2022-08-19T09:15:47;24.10;99.90
57434;DHT22;43277;52.672;6.984;2022-08-19T09:18:14;24.10;99.90
57434;DHT22;43277;52.672;6.984;2022-08-19T09:20:41;24.10;99.90
57434;DHT22;43277;52.672;6.984;2022-08-19T09:23:07;24.30;99.90
57434;DHT22;43277;52.672;6.984;2022-08-19T09:25:33;24.30;99.90
57434;DHT22;43277;52.672;6.984;2022-08-19T09:28:00;24.50;99.90
57434;DHT22;43277;52.672;6.984;2022-08-19T09:30:30;24.60;99.90
57434;DHT22;43277;52.672;6.984;2022-08-19T09:32:56;24.80;99.90
57434;DHT22;43277;52.672;6.984;2022-08-19T09:35:24;25.00;99.90
57434;DHT22;43277;52.672;6.984;2022-08-19T09:37:50;25.10;99.90
57434;DHT22;43277;52.672;6.984;2022-08-19T09:40:17;25.30;99.90
57434;DHT22;43277;52.672;6.984;2022-08-19T09:42:44;25.40;99.90
57434;DHT22;43277;52.672;6.984;2022-08-19T09:45:12;25.50;98.90
57434;DHT22;43277;52.672;6.984;2022-08-19T09:47:37;25.50;98.70
57434;DHT22;43277;52.672;6.984;2022-08-19T09:50:08;25.50;98.40
57434;DHT22;43277;52.672;6.984;2022-08-19T09:52:35;25.60;97.10
57434;DHT22;43277;52.672;6.984;2022-08-19T09:55:06;25.70;96.60
57434;DHT22;43277;52.672;6.984;2022-08-19T09:57:32;25.70;96.30
57434;DHT22;43277;52.672;6.984;2022-08-19T09:59:57;25.70;97.40
57434;DHT22;43277;52.672;6.984;2022-08-19T10:02:23;26.00;99.00
57434;DHT22;43277;52.672;6.984;2022-08-19T10:04:50;26.20;97.90
57434;DHT22;43277;52.672;6.984;2022-08-19T10:07:34;26.20;99.20
57434;DHT22;43277;52.672;6.984;2022-08-19T10:10:00;26.50;96.70
57434;DHT22;43277;52.672;6.984;2022-08-19T10:12:26;26.50;95.50
57434;DHT22;43277;52.672;6.984;2022-08-19T10:14:52;26.50;98.60
57434;DHT22;43277;52.672;6.984;2022-08-19T10:17:19;26.60;97.50
57434;DHT22;43277;52.672;6.984;2022-08-19T10:19:45;26.80;96.00
57434;DHT22;43277;52.672;6.984;2022-08-19T10:22:11;27.00;96.50
57434;DHT22;43277;52.672;6.984;2022-08-19T10:24:39;27.10;95.90
57434;DHT22;43277;52.672;6.984;2022-08-19T10:27:04;27.30;95.40
57434;DHT22;43277;52.672;6.984;2022-08-19T10:29:31;27.40;95.10
57434;DHT22;43277;52.672;6.984;2022-08-19T10:31:58;27.40;93.80
57434;DHT22;43277;52.672;6.984;2022-08-19T10:34:25;27.50;93.10
57434;DHT22;43277;52.672;6.984;2022-08-19T10:36:51;27.50;92.60
57434;DHT22;43277;52.672;6.984;2022-08-19T10:39:17;27.40;94.50
57434;DHT22;43277;52.672;6.984;2022-08-19T10:41:42;27.60;95.00
57434;DHT22;43277;52.672;6.984;2022-08-19T10:44:12;27.70;94.60
57434;DHT22;43277;52.672;6.984;2022-08-19T10:46:40;27.80;92.20
57434;DHT22;43277;52.672;6.984;2022-08-19T10:49:09;27.80;92.40
57434;DHT22;43277;52.672;6.984;2022-08-19T10:51:35;27.90;91.60
57434;DHT22;43277;52.672;6.984;2022-08-19T10:54:20;28.00;89.90
57434;DHT22;43277;52.672;6.984;2022-08-19T10:56:45;28.10;88.90
57434;DHT22;43277;52.672;6.984;2022-08-19T10:59:23;28.00;90.60
57434;DHT22;43277;52.672;6.984;2022-08-19T11:01:50;28.20;90.10
57434;DHT22;43277;52.672;6.984;2022-08-19T11:04:17;28.30;90.10
57434;DHT22;43277;52.672;6.984;2022-08-19T11:06:47;28.40;90.90
57434;DHT22;43277;52.672;6.984;2022-08-19T11:09:15;28.50;88.30
57434;DHT22;43277;52.672;6.984;2022-08-19T11:11:41;28.30;88.20
57434;DHT22;43277;52.672;6.984;2022-08-19T11:14:09;28.30;89.00
57434;DHT22;43277;52.672;6.984;2022-08-19T11:16:36;28.50;85.60
57434;DHT22;43277;52.672;6.984;2022-08-19T11:19:03;28.50;86.60
57434;DHT22;43277;52.672;6.984;2022-08-19T11:21:36;28.60;87.00
57434;DHT22;43277;52.672;6.984;2022-08-19T11:24:28;28.70;83.20
57434;DHT22;43277;52.672;6.984;2022-08-19T11:26:55;28.60;83.60
57434;DHT22;43277;52.672;6.984;2022-08-19T11:29:25;28.60;86.30
57434;DHT22;43277;52.672;6.984;2022-08-19T11:31:53;28.70;85.50
57434;DHT22;43277;52.672;6.984;2022-08-19T11:34:22;28.90;82.40
57434;DHT22;43277;52.672;6.984;2022-08-19T11:36:49;29.10;80.80
57434;DHT22;43277;52.672;6.984;2022-08-19T11:39:18;28.90;79.80
57434;DHT22;43277;52.672;6.984;2022-08-19T11:41:44;28.60;82.00
57434;DHT22;43277;52.672;6.984;2022-08-19T11:44:10;28.50;79.20
57434;DHT22;43277;52.672;6.984;2022-08-19T11:46:37;28.50;81.00
57434;DHT22;43277;52.672;6.984;2022-08-19T11:49:05;28.60;78.30
57434;DHT22;43277;52.672;6.984;2022-08-19T11:51:31;28.50;79.10
57434;DHT22;43277;52.672;6.984;2022-08-19T11:53:58;28.30;78.90
57434;DHT22;43277;52.672;6.984;2022-08-19T11:56:25;28.30;84.50
57434;DHT22;43277;52.672;6.984;2022-08-19T11:58:52;28.60;83.50
57434;DHT22;43277;52.672;6.984;2022-08-19T12:01:20;28.90;82.90
57434;DHT22;43277;52.672;6.984;2022-08-19T12:03:47;29.20;78.60
57434;DHT22;43277;52.672;6.984;2022-08-19T12:06:17;29.50;75.80
57434;DHT22;43277;52.672;6.984;2022-08-19T12:08:44;29.60;75.70
57434;DHT22;43277;52.672;6.984;2022-08-19T12:11:11;29.60;77.50
57434;DHT22;43277;52.672;6.984;2022-08-19T12:13:37;29.60;79.90
57434;DHT22;43277;52.672;6.984;2022-08-19T12:16:18;29.60;79.40
57434;DHT22;43277;52.672;6.984;2022-08-19T12:18:44;29.70;76.50
57434;DHT22;43277;52.672;6.984;2022-08-19T12:21:13;29.60;76.80
57434;DHT22;43277;52.672;6.984;2022-08-19T12:23:40;29.70;75.00
57434;DHT22;43277;52.672;6.984;2022-08-19T12:26:05;29.60;74.90
57434;DHT22;43277;52.672;6.984;2022-08-19T12:28:31;29.60;77.40
57434;DHT22;43277;52.672;6.984;2022-08-19T12:30:57;29.80;76.60
57434;DHT22;43277;52.672;6.984;2022-08-19T12:33:23;30.00;71.20
57434;DHT22;43277;52.672;6.984;2022-08-19T12:35:51;30.10;68.90
57434;DHT22;43277;52.672;6.984;2022-08-19T12:38:17;30.10;67.10
57434;DHT22;43277;52.672;6.984;2022-08-19T12:40:47;30.10;65.90
57434;DHT22;43277;52.672;6.984;2022-08-19T12:43:14;30.10;70.10
57434;DHT22;43277;52.672;6.984;2022-08-19T12:45:41;30.40;75.30
57434;DHT22;43277;52.672;6.984;2022-08-19T12:48:08;30.70;76.90
57434;DHT22;43277;52.672;6.984;2022-08-19T12:50:33;30.80;71.30
57434;DHT22;43277;52.672;6.984;2022-08-19T12:52:59;30.60;69.80
57434;DHT22;43277;52.672;6.984;2022-08-19T12:55:24;30.60;71.80
57434;DHT22;43277;52.672;6.984;2022-08-19T12:57:50;30.40;75.60
57434;DHT22;43277;52.672;6.984;2022-08-19T13:00:18;30.30;76.90
57434;DHT22;43277;52.672;6.984;2022-08-19T13:02:47;30.10;70.40
57434;DHT22;43277;52.672;6.984;2022-08-19T13:05:18;30.10;72.80
57434;DHT22;43277;52.672;6.984;2022-08-19T13:07:49;30.30;71.40
57434;DHT22;43277;52.672;6.984;2022-08-19T13:10:17;30.40;68.40
57434;DHT22;43277;52.672;6.984;2022-08-19T13:12:45;30.30;73.20
57434;DHT22;43277;52.672;6.984;2022-08-19T13:15:11;30.40;74.70
57434;DHT22;43277;52.672;6.984;2022-08-19T13:17:38;30.40;76.70
57434;DHT22;43277;52.672;6.984;2022-08-19T13:20:06;30.60;71.60
57434;DHT22;43277;52.672;6.984;2022-08-19T13:22:33;30.70;68.50
57434;DHT22;43277;52.672;6.984;2022-08-19T13:25:00;30.80;72.10
57434;DHT22;43277;52.672;6.984;2022-08-19T13:27:26;31.00;70.50
57434;DHT22;43277;52.672;6.984;2022-08-19T13:29:52;31.40;71.80
57434;DHT22;43277;52.672;6.984;2022-08-19T13:32:36;31.70;70.80
57434;DHT22;43277;52.672;6.984;2022-08-19T13:35:20;31.60;64.60
57434;DHT22;43277;52.672;6.984;2022-08-19T13:37:46;31.70;63.60
57434;DHT22;43277;52.672;6.984;2022-08-19T13:40:18;31.70;64.10
57434;DHT22;43277;52.672;6.984;2022-08-19T13:42:50;31.70;64.10
57434;DHT22;43277;52.672;6.984;2022-08-19T13:45:18;31.50;63.80
57434;DHT22;43277;52.672;6.984;2022-08-19T13:47:46;31.10;64.70
57434;DHT22;43277;52.672;6.984;2022-08-19T13:50:14;30.70;66.00
57434;DHT22;43277;52.672;6.984;2022-08-19T13:52:43;30.30;67.10
57434;DHT22;43277;52.672;6.984;2022-08-19T13:55:10;29.80;69.70
57434;DHT22;43277;52.672;6.984;2022-08-19T13:57:36;29.50;70.40
57434;DHT22;43277;52.672;6.984;2022-08-19T14:00:09;29.20;74.40
57434;DHT22;43277;52.672;6.984;2022-08-19T14:02:37;29.00;74.10
57434;DHT22;43277;52.672;6.984;2022-08-19T14:05:05;28.90;72.90
57434;DHT22;43277;52.672;6.984;2022-08-19T14:07:31;28.80;73.10
57434;DHT22;43277;52.672;6.984;2022-08-19T14:09:57;28.80;72.30
57434;DHT22;43277;52.672;6.984;2022-08-19T14:12:23;28.50;72.60
57434;DHT22;43277;52.672;6.984;2022-08-19T14:14:48;28.40;77.40
57434;DHT22;43277;52.672;6.984;2022-08-19T14:17:14;28.30;80.90
57434;DHT22;43277;52.672;6.984;2022-08-19T14:19:42;28.40;77.80
57434;DHT22;43277;52.672;6.984;2022-08-19T14:22:08;28.30;78.30
57434;DHT22;43277;52.672;6.984;2022-08-19T14:24:36;28.40;77.50
57434;DHT22;43277;52.672;6.984;2022-08-19T14:27:02;28.40;76.50
57434;DHT22;43277;52.672;6.984;2022-08-19T14:29:28;28.40;79.90
57434;DHT22;43277;52.672;6.984;2022-08-19T14:31:54;28.40;81.90
57434;DHT22;43277;52.672;6.984;2022-08-19T14:34:22;28.60;72.40
57434;DHT22;43277;52.672;6.984;2022-08-19T14:36:48;28.50;78.20
57434;DHT22;43277;52.672;6.984;2022-08-19T14:39:13;28.60;73.50
57434;DHT22;43277;52.672;6.984;2022-08-19T14:41:40;28.60;73.40
57434;DHT22;43277;52.672;6.984;2022-08-19T14:44:07;28.70;76.00
57434;DHT22;43277;52.672;6.984;2022-08-19T14:46:35;28.80;81.00
57434;DHT22;43277;52.672;6.984;2022-08-19T14:49:01;29.10;80.80
57434;DHT22;43277;52.672;6.984;2022-08-19T14:51:27;29.30;80.40
57434;DHT22;43277;52.672;6.984;2022-08-19T14:53:53;29.50;79.40
57434;DHT22;43277;52.672;6.984;2022-08-19T14:56:23;30.20;68.60
57434;DHT22;43277;52.672;6.984;2022-08-19T14:58:49;30.60;65.10
57434;DHT22;43277;52.672;6.984;2022-08-19T15:01:18;31.10;61.90
57434;DHT22;43277;52.672;6.984;2022-08-19T15:03:46;31.40;61.00
57434;DHT22;43277;52.672;6.984;2022-08-19T15:06:12;31.50;61.10
57434;DHT22;43277;52.672;6.984;2022-08-19T15:08:39;31.50;65.60
57434;DHT22;43277;52.672;6.984;2022-08-19T15:11:10;31.50;58.20
57434;DHT22;43277;52.672;6.984;2022-08-19T15:13:36;31.80;53.80
57434;DHT22;43277;52.672;6.984;2022-08-19T15:16:02;32.00;56.40
57434;DHT22;43277;52.672;6.984;2022-08-19T15:18:28;32.10;51.00
57434;DHT22;43277;52.672;6.984;2022-08-19T15:20:53;31.90;51.90
57434;DHT22;43277;52.672;6.984;2022-08-19T15:23:20;31.70;53.40
57434;DHT22;43277;52.672;6.984;2022-08-19T15:25:46;31.60;53.20
57434;DHT22;43277;52.672;6.984;2022-08-19T15:28:12;31.30;54.80
57434;DHT22;43277;52.672;6.984;2022-08-19T15:30:40;31.10;59.30
57434;DHT22;43277;52.672;6.984;2022-08-19T15:33:06;31.30;57.60
57434;DHT22;43277;52.672;6.984;2022-08-19T15:35:32;32.30;58.30
57434;DHT22;43277;52.672;6.984;2022-08-19T15:37:58;33.40;50.30
57434;DHT22;43277;52.672;6.984;2022-08-19T15:40:25;34.30;52.80
57434;DHT22;43277;52.672;6.984;2022-08-19T15:42:52;34.60;48.10
57434;DHT22;43277;52.672;6.984;2022-08-19T15:45:20;35.10;51.00